Ohiopyle, PA

5:31 AM EDT on September 26, 2016 (GMT -0400)
Blooming Rose | | Change Station

Elev 2044 ft 39.65 °N, 79.43 °W | Updated 11 minutes ago

Clear
Clear
50.0 °F
Feels Like 50.0 °F
N
2.7
Wind Variable Wind from NNW

Today
High -- | Low -- °F
--% Chance of Precip.
Yesterday
High -- | Low -- °F
Precip. -- in
Pressure 30.10 in
Visibility 5.0 miles
Clouds Clear
Dew Point 48 °F
Humidity 91%
Rainfall 0.00 in
Snow Depth Not available.
7:09 AM 7:07 PM
Waning Crescent, 20% visible
METAR K2G4 260910Z AUTO 14008KT 5SM BR CLR 11/11 A3010 RMK AO1
Pressure 30.10 in
Visibility 5.0 miles
Clouds Clear
Dew Point 48 °F
Humidity 91%
Rainfall 0.00 in
Snow Depth Not available.
7:09 AM 7:07 PM
Waning Crescent, 20% visible
METAR K2G4 260910Z AUTO 14008KT 5SM BR CLR 11/11 A3010 RMK AO1

10-Day Weather Forecast

Almanac

Astronomy

Sep. 26, 2016 Rise Set
Actual Time
Civil Twilight
Nautical Twilight
Astronomical Twilight
Moon
Length of Visible Light
Length of Day
Tomorrow will be .
, % of the Moon is Illuminated

Today's Extremes

State Highs State Lows

Community

WunderPhotos

Upload Photos

1,941,852 photos uploaded!

WunderBlog® & News

Nearby

Air Quality

  Air Quality AQ Index Pollutant
Not available.

Snow Depth

Station Depth Elevation

Earthquake Activity

City Distance Mag. Time & Date
Minimum magnitude displayed is 2.5.

Coastal Water Temperatures

Place Temperature

Stations

Nearby Weather Stations

Station Location Temp. Windchill Dew Point Humidity Wind Precip. Elev Updated Type
                   

Watches & Warnings

There are currently no watches in effect.